Time;durP1;ratioP1;P1;durP2;ratioP2;P2;SDS_P1;SDS_P2;PMS_P1;PMS_P2;Temp;Humidity;BMP_temperature;BMP_pressure;BME280_temperature;BME280_humidity;BME280_pressure;Samples;Min_cycle;Max_cycle;Signal;HPM_P1;HPM_P2
2023/12/20 00:01:47;;;;;;;11.23;6.35;;;;;;;7.87;56.24;99177.09;4938052;29;20027;-71
2023/12/20 00:04:12;;;;;;;10.68;6.43;;;;;;;7.85;55.92;99171.16;4955283;28;20443;-71
2023/12/20 00:06:38;;;;;;;8.77;5.75;;;;;;;7.83;55.97;99175.59;4921592;29;20415;-71
2023/12/20 00:09:03;;;;;;;11.25;6.40;;;;;;;7.81;56.17;99174.84;4921507;29;20082;-69
2023/12/20 00:11:29;;;;;;;10.50;5.70;;;;;;;7.75;56.21;99163.88;4921959;29;20392;-70
2023/12/20 00:13:54;;;;;;;9.77;5.68;;;;;;;7.78;56.23;99165.47;4937814;29;20066;-71
2023/12/20 00:16:20;;;;;;;8.32;5.20;;;;;;;7.76;56.11;99162.09;4937827;29;20035;-71
2023/12/20 00:18:45;;;;;;;10.88;5.60;;;;;;;7.76;56.21;99169.91;4938135;29;20062;-71
2023/12/20 00:21:11;;;;;;;9.73;5.80;;;;;;;7.75;56.22;99168.25;4953494;29;20028;-70
2023/12/20 00:23:36;;;;;;;8.55;5.28;;;;;;;7.73;56.31;99168.34;4937886;29;20046;-70
2023/12/20 00:26:02;;;;;;;8.00;5.20;;;;;;;7.73;56.19;99167.47;4937366;29;20059;-70
2023/12/20 00:28:27;;;;;;;7.97;5.20;;;;;;;7.74;56.11;99161.38;4936991;29;20125;-70
2023/12/20 00:30:53;;;;;;;9.55;4.97;;;;;;;7.68;55.81;99152.16;4953677;29;20376;-71
2023/12/20 00:33:19;;;;;;;8.90;4.90;;;;;;;7.70;56.12;99159.88;4953482;29;20027;-71
2023/12/20 00:35:44;;;;;;;8.80;4.90;;;;;;;7.72;55.69;99155.44;4937772;29;20031;-70
2023/12/20 00:38:11;;;;;;;7.10;4.45;;;;;;;7.71;55.85;99153.75;4954485;28;20031;-71
2023/12/20 00:40:36;;;;;;;9.32;5.10;;;;;;;7.69;56.19;99151.25;4921781;29;20031;-69
2023/12/20 00:43:02;;;;;;;7.45;4.40;;;;;;;7.64;56.10;99127.28;4936897;29;20051;-71
2023/12/20 00:45:27;;;;;;;6.68;3.88;;;;;;;7.66;56.50;99135.00;4937786;29;20023;-70
2023/12/20 00:47:53;;;;;;;6.03;4.13;;;;;;;7.66;56.43;99140.19;4935790;29;20110;-70
2023/12/20 00:50:18;;;;;;;7.60;4.22;;;;;;;7.59;56.30;99122.34;4954511;28;20465;-70
2023/12/20 00:52:44;;;;;;;7.60;4.32;;;;;;;7.66;55.73;99127.22;4953597;29;20035;-70
2023/12/20 00:55:09;;;;;;;6.43;4.07;;;;;;;7.65;56.43;99120.31;4921170;29;20043;-71
2023/12/20 00:57:35;;;;;;;8.68;4.40;;;;;;;7.62;56.07;99118.72;4952816;29;20094;-70
2023/12/20 01:00:00;;;;;;;9.70;4.15;;;;;;;7.59;55.96;99111.13;4936849;29;20042;-71
2023/12/20 01:02:26;;;;;;;7.47;3.70;;;;;;;7.57;56.14;99116.44;4937398;29;20089;-71
2023/12/20 01:04:51;;;;;;;6.22;3.78;;;;;;;7.52;56.39;99099.41;4921173;29;20403;-72
2023/12/20 01:07:17;;;;;;;6.93;3.75;;;;;;;7.49;56.42;99104.78;4936714;29;20487;-70
2023/12/20 01:09:42;;;;;;;8.95;3.75;;;;;;;7.50;56.40;99106.47;4937454;29;20046;-71
2023/12/20 01:12:08;;;;;;;6.85;3.83;;;;;;;7.52;56.16;99112.41;4937320;29;20031;-70
2023/12/20 01:14:33;;;;;;;8.30;4.25;;;;;;;7.50;56.48;99112.50;4952223;29;20503;-69
2023/12/20 01:16:59;;;;;;;5.72;3.33;;;;;;;7.46;56.38;99095.41;4954324;28;20031;-70
2023/12/20 01:19:25;;;;;;;7.35;3.92;;;;;;;7.46;56.51;99102.38;4936934;29;20031;-69
2023/12/20 01:21:50;;;;;;;6.93;3.72;;;;;;;7.42;56.30;99099.13;4954010;29;20037;-70
2023/12/20 01:24:16;;;;;;;8.35;3.97;;;;;;;7.46;56.47;99099.78;4936751;29;20050;-71
2023/12/20 01:26:41;;;;;;;8.38;4.10;;;;;;;7.40;56.50;99096.59;4952944;29;20521;-71
2023/12/20 01:29:07;;;;;;;6.13;3.53;;;;;;;7.39;56.53;99089.72;4920901;29;20058;-71
2023/12/20 01:31:33;;;;;;;6.80;3.90;;;;;;;7.42;56.60;99096.53;4921194;29;20048;-70
2023/12/20 01:33:58;;;;;;;8.20;4.30;;;;;;;7.35;56.33;99080.47;4953287;29;20035;-70
2023/12/20 01:36:24;;;;;;;7.00;3.88;;;;;;;7.37;56.21;99081.19;4936734;29;20031;-71
2023/12/20 01:38:49;;;;;;;6.10;3.50;;;;;;;7.39;56.41;99084.53;4936770;29;20114;-70
2023/12/20 01:41:15;;;;;;;5.03;3.47;;;;;;;7.35;56.55;99077.00;4936871;29;20476;-70
2023/12/20 01:43:40;;;;;;;5.18;3.15;;;;;;;7.34;56.43;99075.34;4920149;29;20070;-70
2023/12/20 01:46:05;;;;;;;6.03;3.85;;;;;;;7.37;56.44;99078.59;4920351;29;20404;-71
2023/12/20 01:48:32;;;;;;;5.50;3.42;;;;;;;7.34;56.40;99073.59;4921140;29;20043;-69
2023/12/20 01:50:58;;;;;;;8.35;4.18;;;;;;;7.33;56.19;99071.91;4936697;29;20130;-70
2023/12/20 01:53:24;;;;;;;6.55;3.60;;;;;;;7.33;56.20;99069.31;4920902;29;20411;-72
2023/12/20 01:55:50;;;;;;;6.30;3.85;;;;;;;7.29;56.26;99057.44;4936603;29;20030;-70
2023/12/20 01:58:16;;;;;;;5.78;3.72;;;;;;;7.23;56.05;99052.59;4936733;29;20031;-70
2023/12/20 02:00:41;;;;;;;7.70;4.20;;;;;;;7.26;56.43;99057.63;4939441;29;20073;-71
2023/12/20 02:03:06;;;;;;;6.65;3.92;;;;;;;7.21;55.75;99044.91;4940441;29;20525;-71
2023/12/20 02:05:33;;;;;;;6.28;3.58;;;;;;;7.18;55.93;99044.22;4939981;29;20031;-70
2023/12/20 02:07:58;;;;;;;5.65;3.53;;;;;;;7.17;56.23;99043.38;4939853;29;20509;-70
2023/12/20 02:10:24;;;;;;;6.45;3.75;;;;;;;7.16;56.24;99036.50;4939704;29;20043;-69
2023/12/20 02:12:50;;;;;;;6.03;3.70;;;;;;;7.19;56.32;99035.50;4924213;29;20038;-70
2023/12/20 02:15:15;;;;;;;5.70;3.90;;;;;;;7.18;55.95;99042.47;4939811;29;20019;-70
2023/12/20 02:17:41;;;;;;;6.88;3.60;;;;;;;7.14;55.86;99033.16;4939981;29;20038;-70
2023/12/20 02:20:07;;;;;;;6.03;3.78;;;;;;;7.15;55.74;99027.06;4939506;29;20039;-70
2023/12/20 02:22:32;;;;;;;6.85;4.00;;;;;;;7.14;55.90;99029.75;4936065;29;20131;-68
2023/12/20 02:24:58;;;;;;;6.97;4.07;;;;;;;7.08;55.75;99012.75;4954247;28;20098;-71
2023/12/20 02:27:23;;;;;;;7.65;3.83;;;;;;;7.12;55.83;99024.66;4942867;28;20078;-70
2023/12/20 02:29:49;;;;;;;8.52;3.83;;;;;;;7.11;55.64;99020.38;4942716;28;20030;-71
2023/12/20 02:32:14;;;;;;;6.53;3.70;;;;;;;7.10;55.25;99023.06;4926917;28;20038;-70
2023/12/20 02:34:40;;;;;;;5.72;3.35;;;;;;;7.09;55.88;99024.81;4958945;28;20109;-70
2023/12/20 02:37:05;;;;;;;5.85;3.58;;;;;;;7.07;55.67;99018.88;4939631;29;20034;-71
2023/12/20 02:39:31;;;;;;;5.82;3.58;;;;;;;7.02;56.19;99016.56;4956594;29;20554;-70
2023/12/20 02:41:56;;;;;;;5.78;3.90;;;;;;;7.01;55.76;99020.06;4907821;29;20038;-71
2023/12/20 02:44:22;;;;;;;5.95;3.55;;;;;;;6.99;56.02;99013.28;4907160;29;20047;-71
2023/12/20 02:46:47;;;;;;;5.93;3.78;;;;;;;7.00;55.49;99013.19;4923795;29;20097;-71
2023/12/20 02:49:12;;;;;;;8.30;3.65;;;;;;;6.99;55.68;99013.28;4939241;29;20039;-70
2023/12/20 02:51:38;;;;;;;6.38;3.53;;;;;;;6.95;55.81;99012.63;4938695;29;20110;-70
2023/12/20 02:54:04;;;;;;;8.60;3.70;;;;;;;6.92;55.40;99007.59;4923551;29;20038;-70
2023/12/20 02:56:29;;;;;;;8.30;3.95;;;;;;;6.91;55.60;99010.28;4922958;29;20031;-72
2023/12/20 02:58:55;;;;;;;7.63;4.05;;;;;;;6.85;56.26;98998.50;4907497;29;20047;-70
2023/12/20 03:01:20;;;;;;;6.75;3.65;;;;;;;6.87;56.02;99007.88;4923285;29;20147;-71
2023/12/20 03:03:46;;;;;;;7.00;4.10;;;;;;;6.86;55.79;99011.41;4939108;29;20466;-69
2023/12/20 03:06:11;;;;;;;7.10;3.97;;;;;;;6.84;56.36;99015.81;4938913;29;20104;-70
2023/12/20 03:08:38;;;;;;;6.63;3.78;;;;;;;6.84;55.75;99004.63;4907450;29;20046;-71
2023/12/20 03:11:03;;;;;;;7.40;4.65;;;;;;;6.83;56.20;99008.97;4922734;29;20031;-69
2023/12/20 03:13:29;;;;;;;7.03;3.78;;;;;;;6.79;55.80;99002.28;4938831;29;20042;-70
2023/12/20 03:15:54;;;;;;;6.60;3.78;;;;;;;6.79;56.36;98996.25;4923277;29;20473;-70
2023/12/20 03:18:20;;;;;;;7.85;4.15;;;;;;;6.79;55.90;98999.69;4938628;29;20036;-71
2023/12/20 03:20:47;;;;;;;6.45;4.13;;;;;;;6.73;55.95;98996.59;4938360;29;20511;-71
2023/12/20 03:23:12;;;;;;;7.40;4.10;;;;;;;6.76;56.18;98997.25;4907069;29;20510;-72
2023/12/20 03:25:38;;;;;;;7.28;4.35;;;;;;;6.72;55.76;98985.41;4922443;29;20151;-71
2023/12/20 03:28:04;;;;;;;5.95;3.80;;;;;;;6.74;55.86;98983.53;4938191;29;20155;-70
2023/12/20 03:30:29;;;;;;;5.43;3.47;;;;;;;6.75;56.39;98986.97;4955379;29;20028;-70
2023/12/20 03:32:55;;;;;;;9.50;4.55;;;;;;;6.75;55.93;98982.59;4914671;29;20042;-70
2023/12/20 03:35:20;;;;;;;7.13;4.10;;;;;;;6.74;56.41;98974.94;4937988;29;20463;-70
2023/12/20 03:37:45;;;;;;;8.45;4.00;;;;;;;6.73;56.37;98978.44;4954209;29;20042;-71
2023/12/20 03:40:11;;;;;;;6.63;4.05;;;;;;;6.70;56.08;98967.31;4922332;29;20512;-71
2023/12/20 03:42:36;;;;;;;6.88;4.25;;;;;;;6.71;56.00;98962.97;4922291;29;20023;-72
2023/12/20 03:45:02;;;;;;;6.50;4.40;;;;;;;6.67;56.06;98957.13;4922223;29;20067;-71
2023/12/20 03:47:28;;;;;;;7.07;4.38;;;;;;;6.62;56.60;98948.75;4939830;28;20055;-71
2023/12/20 03:49:53;;;;;;;9.15;4.22;;;;;;;6.68;56.32;98948.41;4941153;28;20030;-71
2023/12/20 03:52:18;;;;;;;8.77;4.25;;;;;;;6.69;56.61;98954.44;4941764;28;20065;-71
2023/12/20 03:54:44;;;;;;;11.23;4.35;;;;;;;6.67;56.19;98951.06;4925066;28;20479;-71
2023/12/20 03:57:09;;;;;;;6.53;4.07;;;;;;;6.66;55.94;98954.63;4956829;28;20163;-70
2023/12/20 03:59:36;;;;;;;9.45;4.50;;;;;;;6.65;56.49;98948.56;4940706;28;20486;-69
2023/12/20 04:02:02;;;;;;;7.28;4.40;;;;;;;6.63;56.51;98944.41;4956918;28;20413;-71
2023/12/20 04:04:27;;;;;;;7.82;4.82;;;;;;;6.57;56.76;98930.00;4925287;28;20033;-69
2023/12/20 04:06:53;;;;;;;9.23;4.20;;;;;;;6.60;56.31;98935.03;4924704;28;20042;-69
2023/12/20 04:09:18;;;;;;;7.03;4.55;;;;;;;6.57;56.82;98926.59;4940810;28;20069;-71
2023/12/20 04:11:43;;;;;;;6.32;4.28;;;;;;;6.57;56.54;98926.59;4924755;28;20066;-70
2023/12/20 04:14:10;;;;;;;6.45;3.60;;;;;;;6.50;56.39;98911.38;4924970;28;20070;-70
2023/12/20 04:16:35;;;;;;;7.78;4.05;;;;;;;6.53;56.61;98923.31;4925589;28;20030;-70
2023/12/20 04:19:01;;;;;;;8.90;4.15;;;;;;;6.55;56.24;98931.00;4941051;28;20554;-71
2023/12/20 04:21:26;;;;;;;5.82;3.72;;;;;;;6.55;56.56;98933.59;4924841;28;20074;-71
2023/12/20 04:23:52;;;;;;;5.72;3.78;;;;;;;6.53;56.04;98938.88;4924601;28;20034;-71
2023/12/20 04:26:17;;;;;;;7.57;4.30;;;;;;;6.49;56.31;98922.66;4940025;28;20082;-70
2023/12/20 04:28:43;;;;;;;6.43;3.92;;;;;;;6.50;56.20;98929.53;4941004;28;20381;-71
2023/12/20 04:31:08;;;;;;;6.22;3.92;;;;;;;6.49;55.83;98932.22;4939521;28;20487;-70
2023/12/20 04:33:34;;;;;;;7.55;4.40;;;;;;;6.50;56.12;98936.50;4937498;28;20032;-71
2023/12/20 04:36:00;;;;;;;6.85;4.00;;;;;;;6.45;56.16;98938.47;4939577;28;20073;-70
2023/12/20 04:38:26;;;;;;;6.43;3.95;;;;;;;6.48;56.51;98935.72;4940928;28;20031;-71
2023/12/20 04:40:51;;;;;;;7.57;4.40;;;;;;;6.48;56.40;98943.50;4940371;28;20026;-69
2023/12/20 04:43:17;;;;;;;7.97;4.18;;;;;;;6.47;56.40;98942.69;4940708;28;20058;-70
2023/12/20 04:45:42;;;;;;;8.55;4.18;;;;;;;6.46;56.24;98938.41;4953496;28;20030;-73
2023/12/20 04:48:08;;;;;;;6.85;4.20;;;;;;;6.44;56.40;98936.84;4924456;28;20097;-75
2023/12/20 04:50:33;;;;;;;9.40;4.00;;;;;;;6.51;59.86;98933.81;4924605;28;20035;-75
2023/12/20 04:52:59;;;;;;;18.27;3.20;;;;;;;7.07;74.29;98926.25;4939988;28;20062;-74
2023/12/20 04:55:24;;;;;;;7.10;3.38;;;;;;;7.23;72.06;98933.97;4940331;28;20053;-75
2023/12/20 04:57:50;;;;;;;4.93;3.00;;;;;;;7.53;75.67;98934.84;4940468;28;20038;-73
2023/12/20 05:00:16;;;;;;;9.38;3.58;;;;;;;7.53;71.25;98935.66;4973712;28;20035;-73
2023/12/20 05:02:41;;;;;;;8.15;4.20;;;;;;;7.45;67.56;98930.09;4939954;28;20403;-74
2023/12/20 05:05:08;;;;;;;10.75;4.10;;;;;;;7.42;69.15;98920.72;4925718;28;20093;-76
2023/12/20 05:07:34;;;;;;;7.78;4.03;;;;;;;7.38;66.78;98926.19;4940696;28;20035;-75
2023/12/20 05:10:00;;;;;;;6.53;3.97;;;;;;;7.38;66.36;98923.59;4924653;28;20031;-79
2023/12/20 05:12:25;;;;;;;8.85;4.50;;;;;;;7.34;65.79;98925.56;4925297;28;20026;-82
2023/12/20 05:14:52;;;;;;;11.15;5.60;;;;;;;7.29;65.28;98927.59;4940525;28;20501;-72
2023/12/20 05:17:17;;;;;;;8.60;5.05;;;;;;;7.27;64.42;98932.03;4956441;28;20023;-73
2023/12/20 05:19:43;;;;;;;9.18;5.28;;;;;;;7.23;64.06;98918.41;4956179;28;20037;-72
2023/12/20 05:22:08;;;;;;;12.18;4.78;;;;;;;7.34;68.55;98924.72;4924431;28;20027;-71
2023/12/20 05:24:34;;;;;;;12.93;5.88;;;;;;;7.34;66.02;98909.16;4938775;28;20845;-73
2023/12/20 05:26:59;;;;;;;10.52;5.53;;;;;;;7.30;64.63;98915.44;4939355;28;20529;-72
2023/12/20 05:29:25;;;;;;;9.23;5.72;;;;;;;7.21;63.96;98899.50;4939797;28;20070;-71
2023/12/20 05:31:50;;;;;;;9.45;5.72;;;;;;;7.19;62.90;98903.91;4939895;28;20438;-74
2023/12/20 05:34:16;;;;;;;9.48;5.50;;;;;;;7.14;63.00;98892.16;4940391;28;20050;-72
2023/12/20 05:36:41;;;;;;;12.85;5.30;;;;;;;7.09;63.04;98889.00;4943900;28;20163;-74
2023/12/20 05:39:07;;;;;;;8.82;4.72;;;;;;;7.02;63.20;98878.97;4959476;28;20034;-74
2023/12/20 05:41:33;;;;;;;9.63;5.10;;;;;;;7.01;63.01;98887.69;4943770;28;20479;-72
2023/12/20 05:43:59;;;;;;;9.57;5.03;;;;;;;7.02;63.10;98885.91;4943661;28;20030;-74
2023/12/20 05:46:24;;;;;;;9.60;4.70;;;;;;;6.99;62.78;98881.75;4942765;28;20047;-76
2023/12/20 05:48:51;;;;;;;7.88;4.68;;;;;;;6.97;62.13;98883.59;4943613;28;20136;-72
2023/12/20 05:51:17;;;;;;;7.97;4.82;;;;;;;6.99;61.89;98881.75;4927932;28;20050;-75
2023/12/20 05:53:42;;;;;;;6.95;4.32;;;;;;;7.16;61.75;98877.31;4942818;28;20073;-75
2023/12/20 05:56:08;;;;;;;9.27;4.63;;;;;;;7.48;61.06;98880.56;4958270;28;20031;-74
2023/12/20 05:58:33;;;;;;;8.73;4.70;;;;;;;7.86;59.69;98879.97;4917181;29;20027;-73
2023/12/20 06:00:59;;;;;;;5.13;3.72;;;;;;;7.94;59.37;98856.09;4922211;29;20047;-72
2023/12/20 06:03:24;;;;;;;6.90;4.32;;;;;;;8.36;57.93;98864.63;4938804;29;20050;-72
2023/12/20 06:05:50;;;;;;;7.25;4.25;;;;;;;8.94;56.65;98865.19;4922871;29;20087;-73
2023/12/20 06:08:15;;;;;;;8.43;4.90;;;;;;;9.37;55.68;98861.41;4907350;29;20054;-73
2023/12/20 06:10:41;;;;;;;8.23;5.13;;;;;;;9.85;54.39;98868.50;4939539;29;20498;-71
2023/12/20 06:13:06;;;;;;;7.43;4.57;;;;;;;9.39;55.59;98857.78;4938948;29;20038;-74
2023/12/20 06:15:32;;;;;;;9.13;5.22;;;;;;;9.12;55.95;98859.66;4908083;29;20035;-72
2023/12/20 06:17:58;;;;;;;17.77;5.50;;;;;;;8.95;56.58;98861.66;4924037;29;20158;-72
2023/12/20 06:20:23;;;;;;;7.18;4.90;;;;;;;8.80;56.64;98862.69;4923490;29;20047;-72
2023/12/20 06:22:49;;;;;;;8.30;5.10;;;;;;;8.63;57.25;98854.25;4924045;29;20031;-73
2023/12/20 06:25:15;;;;;;;10.82;4.97;;;;;;;8.60;57.05;98861.38;4923779;29;20155;-71
2023/12/20 06:27:41;;;;;;;7.15;4.72;;;;;;;8.49;56.69;98854.28;4940047;29;20027;-73
2023/12/20 06:30:09;;;;;;;8.73;4.90;;;;;;;8.50;56.63;98855.97;4908039;29;20050;-72
2023/12/20 06:32:34;;;;;;;10.50;4.40;;;;;;;8.59;56.71;98857.16;4938936;29;20035;-73
2023/12/20 06:35:00;;;;;;;9.73;5.15;;;;;;;10.20;52.93;98847.72;4923772;29;20110;-73
2023/12/20 06:37:25;;;;;;;7.18;4.50;;;;;;;12.08;48.52;98841.22;4939206;29;20047;-72
2023/12/20 06:39:51;;;;;;;8.55;5.32;;;;;;;13.54;45.47;98857.03;4923313;29;20066;-74
2023/12/20 06:42:16;;;;;;;6.47;4.38;;;;;;;14.90;42.60;98847.59;4923537;29;20031;-73
2023/12/20 06:44:42;;;;;;;9.07;5.20;;;;;;;16.25;40.11;98836.53;4923518;29;20097;-73
2023/12/20 06:47:07;;;;;;;8.07;5.38;;;;;;;17.56;37.51;98848.13;4922211;29;20085;-73
2023/12/20 06:49:33;;;;;;;9.57;5.43;;;;;;;18.50;35.56;98838.25;4923150;29;20051;-73
2023/12/20 06:51:58;;;;;;;11.50;5.82;;;;;;;19.20;34.47;98847.44;4923538;29;20563;-73
2023/12/20 06:54:24;;;;;;;15.10;7.07;;;;;;;19.73;33.10;98853.03;4939025;29;20036;-72
2023/12/20 06:56:49;;;;;;;10.70;6.72;;;;;;;20.07;33.24;98847.41;4923471;29;20403;-73
2023/12/20 06:59:15;;;;;;;13.98;7.72;;;;;;;20.03;32.79;98843.47;4939501;29;20398;-71
2023/12/20 07:01:41;;;;;;;11.95;7.65;;;;;;;20.06;32.57;98835.16;4938648;29;20098;-73
2023/12/20 07:04:06;;;;;;;11.85;7.53;;;;;;;20.04;33.06;98829.22;4923252;29;20142;-71
2023/12/20 07:06:32;;;;;;;11.35;7.90;;;;;;;20.09;33.16;98820.75;4922890;29;20023;-72
2023/12/20 07:08:57;;;;;;;13.23;8.10;;;;;;;20.18;32.87;98825.00;4939090;29;20098;-73
2023/12/20 07:11:24;;;;;;;10.15;7.40;;;;;;;20.35;32.57;98820.38;4938819;29;20035;-75
2023/12/20 07:13:49;;;;;;;11.48;7.32;;;;;;;20.52;32.04;98818.41;4923712;29;20039;-73
2023/12/20 07:16:15;;;;;;;14.60;7.68;;;;;;;20.63;31.70;98810.03;4907391;29;20020;-75
2023/12/20 07:18:40;;;;;;;11.02;7.68;;;;;;;20.70;31.47;98824.25;4907301;29;20039;-72
2023/12/20 07:21:07;;;;;;;11.40;6.80;;;;;;;20.78;30.89;98826.81;4922841;29;20034;-74
2023/12/20 07:23:33;;;;;;;9.93;6.32;;;;;;;20.81;30.75;98822.16;4923440;29;20046;-76
2023/12/20 07:25:59;;;;;;;10.63;6.35;;;;;;;21.01;30.09;98830.41;4922774;29;20043;-75
2023/12/20 07:28:24;;;;;;;8.85;6.57;;;;;;;21.21;29.32;98830.72;4923033;29;20388;-74
2023/12/20 07:30:50;;;;;;;9.45;6.22;;;;;;;21.39;28.85;98817.84;4938176;29;20079;-73
2023/12/20 07:33:15;;;;;;;8.75;6.03;;;;;;;21.63;28.78;98818.59;4922215;29;20126;-73
2023/12/20 07:35:41;;;;;;;9.90;5.70;;;;;;;21.82;28.27;98825.97;4906603;29;20480;-72
2023/12/20 07:38:06;;;;;;;8.70;5.75;;;;;;;21.96;27.73;98810.97;4922873;29;20023;-73
2023/12/20 07:40:32;;;;;;;13.00;6.40;;;;;;;22.21;27.76;98821.25;4922963;29;20406;-72
2023/12/20 07:42:58;;;;;;;14.60;6.75;;;;;;;22.37;27.05;98826.31;4955510;29;20042;-72
2023/12/20 07:45:23;;;;;;;13.70;8.65;;;;;;;22.50;26.70;98822.97;4906218;29;20052;-71
2023/12/20 07:47:50;;;;;;;21.30;10.82;;;;;;;22.65;26.50;98824.72;4922169;29;20040;-73
2023/12/20 07:50:15;;;;;;;23.75;13.75;;;;;;;22.77;26.04;98807.19;4938421;29;20384;-72
2023/12/20 07:52:41;;;;;;;29.08;16.13;;;;;;;22.91;25.92;98811.63;4906606;29;20046;-72
2023/12/20 07:55:07;;;;;;;24.67;16.90;;;;;;;23.04;25.80;98810.03;4922388;29;20498;-72
2023/12/20 07:57:32;;;;;;;31.00;19.27;;;;;;;23.11;25.41;98801.09;4922129;29;20027;-73
2023/12/20 07:59:58;;;;;;;37.47;19.08;;;;;;;23.24;25.14;98797.69;4921835;29;20046;-73
2023/12/20 08:02:23;;;;;;;32.42;19.67;;;;;;;23.28;25.23;98796.28;4938329;29;20039;-72
2023/12/20 08:04:48;;;;;;;31.83;20.45;;;;;;;23.34;24.99;98812.47;4906304;29;20109;-75
2023/12/20 08:07:14;;;;;;;30.13;20.15;;;;;;;23.35;25.24;98809.63;4906171;29;20054;-72
2023/12/20 08:09:40;;;;;;;32.35;20.10;;;;;;;23.38;25.04;98805.75;4922128;29;20067;-74
2023/12/20 08:12:05;;;;;;;31.55;20.73;;;;;;;23.41;24.84;98806.16;4938023;29;20039;-72
2023/12/20 08:14:31;;;;;;;25.08;18.33;;;;;;;23.44;24.87;98792.44;4922360;29;20067;-71
2023/12/20 08:16:57;;;;;;;28.73;18.33;;;;;;;23.50;24.84;98798.84;4937871;29;20023;-72
2023/12/20 08:19:22;;;;;;;28.02;18.05;;;;;;;23.55;24.98;98796.38;4937941;29;20384;-72
2023/12/20 08:21:48;;;;;;;27.33;16.88;;;;;;;23.63;24.60;98787.41;4922161;29;20035;-73
2023/12/20 08:24:13;;;;;;;26.77;16.52;;;;;;;23.72;24.49;98788.03;4905951;29;20081;-73
2023/12/20 08:26:38;;;;;;;27.23;16.83;;;;;;;23.82;24.31;98777.81;4937333;29;20463;-72
2023/12/20 08:29:04;;;;;;;29.90;16.60;;;;;;;23.99;24.16;98781.75;4921723;29;20035;-72
2023/12/20 08:31:29;;;;;;;28.63;17.25;;;;;;;24.11;24.04;98770.50;4921882;29;20034;-71
2023/12/20 08:33:55;;;;;;;27.20;19.52;;;;;;;24.24;23.77;98765.16;4937778;29;20082;-72
2023/12/20 08:36:22;;;;;;;32.80;20.27;;;;;;;24.42;23.92;98769.06;4905869;29;20051;-71
2023/12/20 08:38:48;;;;;;;28.63;19.57;;;;;;;24.53;23.51;98765.78;4921329;29;20094;-73
2023/12/20 08:41:13;;;;;;;29.05;19.42;;;;;;;24.66;23.37;98759.63;4936969;29;20039;-71
2023/12/20 08:43:41;;;;;;;24.55;17.88;;;;;;;24.81;23.30;98764.72;4921208;29;20431;-73
2023/12/20 08:46:09;;;;;;;25.35;16.90;;;;;;;24.96;23.12;98757.31;4937708;29;20027;-72
2023/12/20 08:48:35;;;;;;;25.65;15.93;;;;;;;25.13;23.07;98748.81;4937484;29;20073;-74
2023/12/20 08:51:00;;;;;;;29.42;17.08;;;;;;;25.39;22.66;98738.03;4937190;29;20027;-71
2023/12/20 08:53:26;;;;;;;23.08;15.52;;;;;;;25.72;22.29;98731.69;4921319;29;20069;-70
2023/12/20 08:55:52;;;;;;;24.15;15.93;;;;;;;26.15;21.54;98731.00;4921680;29;20032;-72
2023/12/20 08:58:17;;;;;;;28.60;15.93;;;;;;;26.50;21.26;98718.97;4921595;29;20479;-72
2023/12/20 09:00:43;;;;;;;30.95;15.23;;;;;;;26.76;20.80;98717.91;4905570;29;20027;-72
2023/12/20 09:03:09;;;;;;;23.20;14.98;;;;;;;26.95;20.52;98702.66;4905558;29;20058;-72
2023/12/20 09:05:34;;;;;;;23.73;15.32;;;;;;;27.14;20.49;98691.94;4936921;29;20023;-72
2023/12/20 09:08:00;;;;;;;27.10;15.10;;;;;;;27.24;20.47;98697.56;4921533;29;20394;-72
2023/12/20 09:10:25;;;;;;;24.30;14.40;;;;;;;27.31;20.28;98690.28;4936196;29;20479;-73
2023/12/20 09:12:54;;;;;;;25.63;15.32;;;;;;;27.34;20.41;98683.63;4936661;29;20039;-73
2023/12/20 09:15:19;;;;;;;28.48;15.55;;;;;;;27.43;20.08;98669.69;4936561;29;20058;-74
2023/12/20 09:17:45;;;;;;;24.40;14.48;;;;;;;27.44;19.96;98665.16;4921186;29;20475;-73
2023/12/20 09:20:10;;;;;;;23.63;15.20;;;;;;;27.55;20.07;98677.78;4921962;29;20024;-73
2023/12/20 09:22:38;;;;;;;25.63;14.80;;;;;;;27.47;20.16;98672.75;4905544;29;20070;-72
2023/12/20 09:25:04;;;;;;;27.38;15.30;;;;;;;27.51;20.07;98662.38;4937209;29;20059;-73
2023/12/20 09:27:30;;;;;;;25.95;13.95;;;;;;;27.62;20.11;98654.34;4937207;29;20043;-72
2023/12/20 09:29:55;;;;;;;27.95;13.45;;;;;;;27.76;19.82;98654.16;4921169;29;20035;-72
2023/12/20 09:32:20;;;;;;;22.67;13.18;;;;;;;28.04;19.50;98644.63;4921089;29;20059;-72
2023/12/20 09:34:47;;;;;;;21.33;13.50;;;;;;;28.47;19.10;98652.31;4905940;29;20047;-72
2023/12/20 09:37:13;;;;;;;23.10;15.05;;;;;;;29.05;18.65;98649.75;4920486;29;20118;-72
2023/12/20 09:39:38;;;;;;;30.23;15.52;;;;;;;29.64;18.38;98630.63;4920818;29;20050;-72
2023/12/20 09:42:05;;;;;;;24.48;15.40;;;;;;;30.41;17.33;98633.69;4920943;29;20127;-74
2023/12/20 09:44:31;;;;;;;24.85;14.65;;;;;;;30.55;17.18;98628.75;4921201;29;20023;-71
2023/12/20 09:46:56;;;;;;;22.00;14.75;;;;;;;31.32;16.52;98625.03;4920482;29;20039;-74
2023/12/20 09:49:22;;;;;;;25.05;15.18;;;;;;;31.92;16.24;98620.41;4920996;29;20066;-73
2023/12/20 09:51:48;;;;;;;26.23;14.90;;;;;;;32.47;15.55;98614.81;4920929;29;20027;-71
2023/12/20 09:54:17;;;;;;;20.65;13.77;;;;;;;32.92;14.88;98609.84;4921020;29;20078;-74
2023/12/20 09:56:42;;;;;;;22.08;14.55;;;;;;;32.31;15.51;98596.91;4920633;29;20125;-73
2023/12/20 09:59:08;;;;;;;22.75;14.27;;;;;;;31.51;15.77;98603.09;4936691;29;20411;-73
2023/12/20 10:01:34;;;;;;;25.88;14.10;;;;;;;30.07;16.93;98607.63;4935922;29;20082;-72
2023/12/20 10:03:59;;;;;;;29.75;15.73;;;;;;;30.73;16.47;98601.50;4936464;29;20038;-72
2023/12/20 10:06:25;;;;;;;30.00;16.67;;;;;;;32.12;15.58;98591.97;4920549;29;20467;-75
2023/12/20 10:08:50;;;;;;;27.90;17.27;;;;;;;32.53;15.37;98594.84;4921061;29;20039;-72
2023/12/20 10:11:16;;;;;;;32.25;18.40;;;;;;;33.09;14.79;98602.31;4953692;29;20105;-71
2023/12/20 10:13:41;;;;;;;33.08;18.17;;;;;;;33.41;15.00;98597.78;4936442;29;20035;-73
2023/12/20 10:16:09;;;;;;;35.88;19.30;;;;;;;33.66;14.63;98581.53;4920722;29;20074;-74
2023/12/20 10:18:35;;;;;;;37.15;18.35;;;;;;;33.80;14.40;98572.88;4905014;29;20418;-72
2023/12/20 10:21:01;;;;;;;35.33;17.80;;;;;;;32.85;15.38;98568.78;4906844;29;20452;-74
2023/12/20 10:23:26;;;;;;;29.02;17.90;;;;;;;31.97;15.71;98562.16;4908450;29;20035;-73
2023/12/20 10:25:58;;;;;;;29.80;17.77;;;;;;;30.95;16.95;98552.97;4923437;29;20423;-72
2023/12/20 10:28:28;;;;;;;25.60;17.17;;;;;;;29.89;17.75;98546.84;4939116;29;20043;-71
2023/12/20 10:30:56;;;;;;;33.22;16.90;;;;;;;28.97;18.74;98551.53;4925077;29;20043;-72
2023/12/20 10:33:28;;;;;;;26.20;15.50;;;;;;;28.40;19.31;98543.41;4940053;29;20031;-72
2023/12/20 10:35:55;;;;;;;21.77;14.90;;;;;;;27.83;19.60;98546.75;4923884;29;20439;-71
2023/12/20 10:38:20;;;;;;;23.05;14.32;;;;;;;27.30;20.23;98546.56;4923911;29;20411;-73
2023/12/20 10:40:46;;;;;;;23.80;14.15;;;;;;;26.74;20.87;98545.97;4923811;29;20031;-72
2023/12/20 10:43:11;;;;;;;25.42;13.38;;;;;;;26.06;21.59;98544.28;4923624;29;20062;-73
2023/12/20 10:45:37;;;;;;;21.60;12.82;;;;;;;25.64;22.02;98545.66;4938545;29;20082;-71
2023/12/20 10:48:03;;;;;;;20.42;11.70;;;;;;;25.38;22.72;98546.72;4923506;29;20035;-72
2023/12/20 10:50:29;;;;;;;20.65;11.25;;;;;;;25.31;22.67;98537.13;4907595;29;20058;-72
2023/12/20 10:52:55;;;;;;;18.80;10.77;;;;;;;25.34;22.85;98537.50;4923909;29;20027;-72
2023/12/20 10:55:24;;;;;;;18.15;10.18;;;;;;;25.26;23.00;98516.38;4923560;29;20110;-71
2023/12/20 10:57:51;;;;;;;17.63;10.45;;;;;;;25.23;23.25;98512.28;4907509;29;20178;-71
2023/12/20 11:00:19;;;;;;;15.70;10.13;;;;;;;25.16;23.41;98510.69;4922596;29;20047;-72
2023/12/20 11:02:45;;;;;;;16.23;9.55;;;;;;;25.03;23.49;98512.44;4938849;29;20031;-72
2023/12/20 11:05:22;;;;;;;13.88;8.93;;;;;;;24.94;23.56;98521.75;4907925;29;20113;-73
2023/12/20 11:07:59;;;;;;;15.55;9.30;;;;;;;24.79;23.61;98502.53;4938487;29;20044;-71
2023/12/20 11:11:03;;;;;;;12.00;9.18;;;;;;;24.58;23.93;98495.69;4908743;29;20034;-73
2023/12/20 11:13:34;;;;;;;13.77;9.27;;;;;;;24.39;24.37;98501.69;4938762;29;20039;-73
2023/12/20 11:16:00;;;;;;;13.98;8.82;;;;;;;24.21;24.42;98490.91;4923503;29;20035;-72
2023/12/20 11:18:30;;;;;;;15.13;8.75;;;;;;;24.02;24.60;98490.75;4939291;29;20043;-73
2023/12/20 11:20:55;;;;;;;17.00;8.63;;;;;;;23.88;24.96;98493.66;4939155;29;20042;-73
2023/12/20 11:23:21;;;;;;;17.17;8.82;;;;;;;23.70;25.12;98479.09;4907750;29;20039;-72
2023/12/20 11:25:53;;;;;;;11.57;8.77;;;;;;;23.46;25.39;98473.41;4922584;29;20047;-72